createdAt,value
2023-01-12T00:03:05.985Z,75
2023-01-12T00:13:05.893Z,75
2023-01-12T00:23:05.975Z,73
2023-01-12T00:33:05.885Z,69.5
2023-01-12T00:43:05.950Z,67
2023-01-12T00:53:05.907Z,64
2023-01-12T01:03:05.992Z,66
2023-01-12T01:13:06.130Z,64
2023-01-12T01:23:06.057Z,65.5
2023-01-12T01:33:06.059Z,65
2023-01-12T01:43:05.944Z,62.5
2023-01-12T01:53:06.065Z,65
2023-01-12T02:03:05.977Z,65.5
2023-01-12T02:13:06.055Z,64
2023-01-12T02:23:05.931Z,62.5
2023-01-12T02:33:06.057Z,68.5
2023-01-12T02:43:06.130Z,74
2023-01-12T02:53:06.058Z,74.5
2023-01-12T03:03:06.151Z,77
2023-01-12T03:13:06.065Z,77.5
2023-01-12T03:23:06.114Z,74
2023-01-12T03:33:06.049Z,67
2023-01-12T03:43:06.103Z,66
2023-01-12T03:53:06.224Z,65.5
2023-01-12T04:03:06.115Z,65
2023-01-12T04:13:06.223Z,66.5
2023-01-12T04:23:06.092Z,68.5
2023-01-12T04:33:06.234Z,70.5
2023-01-12T04:43:07.727Z,69
2023-01-12T04:53:06.318Z,68.5
2023-01-12T05:03:06.123Z,73
2023-01-12T05:13:06.227Z,76.5
2023-01-12T05:23:06.323Z,79
2023-01-12T05:33:06.226Z,76.5
2023-01-12T05:43:06.300Z,75
2023-01-12T05:53:06.224Z,68
2023-01-12T06:03:06.278Z,66
2023-01-12T06:13:06.205Z,72.5
2023-01-12T06:23:06.295Z,73
2023-01-12T06:33:06.188Z,75.5
2023-01-12T06:43:06.292Z,66.5
2023-01-12T06:53:06.422Z,69
2023-01-12T07:03:06.303Z,68.5
2023-01-12T07:13:06.516Z,65
2023-01-12T07:23:06.282Z,63.5
2023-01-12T07:33:06.414Z,74.5
2023-01-12T07:43:06.270Z,70.5
2023-01-12T07:53:06.396Z,63.5
2023-01-12T08:03:06.276Z,63.5
2023-01-12T08:13:06.413Z,60
2023-01-12T08:23:06.285Z,63.5
2023-01-12T08:33:06.419Z,62.5
2023-01-12T08:43:06.489Z,65
2023-01-12T08:53:06.428Z,64.5
2023-01-12T09:03:06.470Z,61.5
2023-01-12T09:13:06.420Z,61.5
2023-01-12T09:23:06.488Z,58
2023-01-12T09:33:06.418Z,56.5
2023-01-12T09:43:06.465Z,59
2023-01-12T09:53:06.393Z,57
2023-01-12T10:03:06.561Z,56.5
2023-01-12T10:13:06.615Z,53.5
2023-01-12T10:23:06.483Z,53.5
2023-01-12T10:33:06.795Z,54.5
2023-01-12T10:43:09.444Z,52.5
2023-01-12T10:53:06.678Z,52.5
2023-01-12T11:03:06.563Z,53.5
2023-01-12T11:13:06.677Z,55
2023-01-12T11:23:06.820Z,55
2023-01-12T11:33:06.677Z,52.5
2023-01-12T11:43:06.522Z,52.5
2023-01-12T11:53:06.681Z,52.5
2023-01-12T12:03:06.547Z,52.5
2023-01-12T12:13:06.952Z,52.5
2023-01-12T12:23:06.570Z,52.5
2023-01-12T12:33:07.353Z,53
2023-01-12T12:43:07.395Z,54
2023-01-12T12:53:06.651Z,54
2023-01-12T13:03:06.841Z,54
2023-01-12T13:13:06.675Z,54
2023-01-12T13:23:06.748Z,54
2023-01-12T13:33:06.907Z,54
2023-01-12T13:43:06.728Z,54
2023-01-12T13:53:06.726Z,54
2023-01-12T14:03:06.786Z,54
2023-01-12T14:13:06.746Z,54
2023-01-12T14:23:06.760Z,54
2023-01-12T14:33:06.943Z,54
2023-01-12T14:43:06.771Z,54
2023-01-12T14:53:06.918Z,54
2023-01-12T15:03:06.744Z,54
2023-01-12T15:13:07.073Z,54
2023-01-12T15:23:06.729Z,55
2023-01-12T15:33:06.871Z,56
2023-01-12T15:43:06.755Z,56
2023-01-12T15:53:07.390Z,56
2023-01-12T16:03:06.940Z,56
2023-01-12T16:13:07.768Z,56
2023-01-12T16:23:06.945Z,56
2023-01-12T16:33:06.839Z,56
2023-01-12T16:43:06.945Z,56
2023-01-12T16:53:06.832Z,56
2023-01-12T17:03:06.952Z,56
2023-01-12T17:13:07.036Z,56
2023-01-12T17:23:06.960Z,56
2023-01-12T17:33:07.069Z,56
2023-01-12T17:43:08.088Z,56
2023-01-12T17:53:07.031Z,56
2023-01-12T18:03:06.948Z,56
2023-01-12T18:13:07.053Z,56
2023-01-12T18:23:06.908Z,56
2023-01-12T18:33:07.162Z,56
2023-01-12T18:43:06.921Z,56
2023-01-12T18:53:07.073Z,56
2023-01-12T19:03:07.235Z,56
2023-01-12T19:13:07.302Z,56
2023-01-12T19:23:07.436Z,56
2023-01-12T19:33:07.038Z,56
2023-01-12T19:43:07.122Z,56
2023-01-12T19:53:07.072Z,56
2023-01-12T20:03:07.185Z,56
2023-01-12T20:13:07.027Z,56
2023-01-12T20:23:07.101Z,56
2023-01-12T20:33:07.253Z,56
2023-01-12T20:43:07.116Z,56
2023-01-12T20:53:07.242Z,56
2023-01-12T21:03:07.119Z,56
2023-01-12T21:13:07.198Z,56
2023-01-12T21:23:07.095Z,56
2023-01-12T21:33:07.205Z,56
2023-01-12T21:43:07.305Z,56
2023-01-12T21:53:07.215Z,56
2023-01-12T22:03:07.275Z,56
2023-01-12T22:13:07.185Z,56
2023-01-12T22:23:07.266Z,56
2023-01-12T22:33:07.215Z,56
2023-01-12T22:43:07.314Z,56
2023-01-12T22:53:07.173Z,56
2023-01-12T23:03:07.396Z,56
2023-01-12T23:13:07.406Z,56
2023-01-12T23:23:07.268Z,56
2023-01-12T23:33:07.522Z,56
2023-01-12T23:43:07.261Z,56
2023-01-12T23:53:07.421Z,56
